Time;durP1;ratioP1;P1;durP2;ratioP2;P2;SDS_P1;SDS_P2;PMS_P1;PMS_P2;Temp;Humidity;BMP_temperature;BMP_pressure;BME280_temperature;BME280_humidity;BME280_pressure;Samples;Min_cycle;Max_cycle;Signal;HPM_P1;HPM_P2
2022/11/16 00:01:20;;;;;;;5.33;4.93;;;13.50;99.90;;;;;;4974385;28;20168;-71
2022/11/16 00:03:50;;;;;;;5.93;5.13;;;13.50;99.90;;;;;;4974746;28;20171;-69
2022/11/16 00:06:16;;;;;;;5.87;5.27;;;13.50;99.90;;;;;;4974508;28;20199;-69
2022/11/16 00:08:45;;;;;;;5.80;5.13;;;13.60;99.90;;;;;;4973491;28;20230;-69
2022/11/16 00:11:13;;;;;;;5.17;4.67;;;13.60;99.90;;;;;;4973053;28;20215;-69
2022/11/16 00:13:40;;;;;;;5.70;5.20;;;13.60;99.90;;;;;;4974486;28;20643;-70
2022/11/16 00:16:12;;;;;;;5.33;4.93;;;13.70;99.90;;;;;;4974035;28;20175;-69
2022/11/16 00:18:38;;;;;;;5.93;5.43;;;13.70;99.90;;;;;;4974473;28;20179;-69
2022/11/16 00:21:04;;;;;;;7.53;5.40;;;13.60;99.90;;;;;;4974352;28;20181;-70
2022/11/16 00:23:31;;;;;;;8.13;5.73;;;13.60;99.90;;;;;;4973132;28;20303;-70
2022/11/16 00:26:02;;;;;;;6.57;5.80;;;13.60;99.90;;;;;;4974465;28;20655;-68
2022/11/16 00:28:28;;;;;;;6.80;5.57;;;13.50;99.90;;;;;;4974467;28;20210;-69
2022/11/16 00:31:02;;;;;;;6.10;5.50;;;13.50;99.90;;;;;;4974015;28;20587;-69
2022/11/16 00:33:31;;;;;;;6.87;6.20;;;13.50;99.90;;;;;;4974243;28;20671;-69
2022/11/16 00:36:01;;;;;;;6.77;6.07;;;13.40;99.90;;;;;;4973533;28;20374;-70
2022/11/16 00:38:28;;;;;;;8.37;6.10;;;13.40;99.90;;;;;;4974321;28;20207;-70
2022/11/16 00:40:56;;;;;;;9.73;6.33;;;13.50;99.90;;;;;;4974198;28;20172;-69
2022/11/16 00:43:22;;;;;;;9.63;6.60;;;13.40;99.90;;;;;;4974034;28;20171;-69
2022/11/16 00:45:47;;;;;;;8.30;6.70;;;13.40;99.90;;;;;;4974035;28;20171;-69
2022/11/16 00:48:13;;;;;;;7.07;6.10;;;13.30;99.90;;;;;;4974239;28;20252;-70
2022/11/16 00:50:39;;;;;;;5.63;4.90;;;13.20;99.90;;;;;;4972799;28;20215;-69
2022/11/16 00:53:11;;;;;;;5.47;4.97;;;13.10;99.90;;;;;;4974081;28;20227;-70
2022/11/16 00:55:37;;;;;;;6.13;4.03;;;13.00;99.90;;;;;;4974037;28;20168;-69
2022/11/16 00:58:05;;;;;;;9.27;5.50;;;12.90;99.90;;;;;;4974214;28;20175;-69
2022/11/16 01:00:31;;;;;;;14.33;5.40;;;12.90;99.90;;;;;;4973813;28;20234;-69
2022/11/16 01:02:57;;;;;;;7.23;4.80;;;12.90;99.90;;;;;;4973944;28;20639;-70
2022/11/16 01:05:23;;;;;;;5.50;4.00;;;12.90;99.90;;;;;;4974176;28;20659;-70
2022/11/16 01:07:49;;;;;;;4.40;3.80;;;12.80;99.90;;;;;;4973993;28;20254;-70
2022/11/16 01:10:18;;;;;;;3.93;3.53;;;12.80;99.90;;;;;;4974045;28;20259;-70
2022/11/16 01:12:48;;;;;;;5.07;3.97;;;12.80;99.90;;;;;;4973676;28;20223;-70
2022/11/16 01:15:18;;;;;;;4.07;3.67;;;12.70;99.90;;;;;;4974051;28;20168;-70
2022/11/16 01:17:44;;;;;;;4.53;4.13;;;12.70;99.90;;;;;;4973867;28;20172;-70
2022/11/16 01:20:13;;;;;;;5.40;3.87;;;12.70;99.90;;;;;;4974046;28;20179;-71
2022/11/16 01:22:39;;;;;;;4.43;3.40;;;12.70;99.90;;;;;;4974561;28;20172;-71
2022/11/16 01:25:05;;;;;;;4.83;3.40;;;12.70;99.90;;;;;;4977608;28;20287;-71
2022/11/16 01:27:31;;;;;;;7.47;4.10;;;12.60;99.90;;;;;;4977255;28;20183;-69
2022/11/16 01:29:57;;;;;;;5.93;3.57;;;12.60;99.90;;;;;;4977398;28;20207;-69
2022/11/16 01:32:23;;;;;;;6.60;3.93;;;12.60;99.90;;;;;;4977279;28;20168;-69
2022/11/16 01:34:49;;;;;;;4.83;3.67;;;12.60;99.90;;;;;;4977045;28;20683;-69
2022/11/16 01:37:15;;;;;;;3.50;3.30;;;12.60;99.90;;;;;;4977304;28;20198;-69
2022/11/16 01:39:41;;;;;;;4.40;3.70;;;12.50;99.90;;;;;;4977208;28;20172;-70
2022/11/16 01:42:09;;;;;;;3.50;3.20;;;12.50;99.90;;;;;;4976910;28;20244;-70
2022/11/16 01:44:35;;;;;;;5.50;3.40;;;12.30;99.90;;;;;;4977256;28;20175;-69
2022/11/16 01:47:06;;;;;;;3.83;2.70;;;12.30;99.90;;;;;;4977123;28;20180;-70
2022/11/16 01:49:36;;;;;;;4.83;2.60;;;12.30;99.90;;;;;;4977065;28;20195;-71
2022/11/16 01:52:08;;;;;;;4.17;2.30;;;12.20;99.90;;;;;;4977163;28;20276;-71
2022/11/16 01:54:39;;;;;;;3.43;2.20;;;12.10;99.90;;;;;;4977078;28;20200;-70
2022/11/16 01:57:07;;;;;;;2.80;2.47;;;12.10;99.90;;;;;;4976718;28;20655;-69
2022/11/16 01:59:33;;;;;;;4.67;2.40;;;12.10;99.90;;;;;;4975624;28;20219;-70
2022/11/16 02:01:59;;;;;;;6.57;2.70;;;12.10;99.90;;;;;;4976852;28;20207;-70
2022/11/16 02:04:25;;;;;;;5.73;2.90;;;12.10;99.90;;;;;;4976887;28;20172;-70
2022/11/16 02:07:13;;;;;;;3.93;2.90;;;12.20;99.90;;;;;;4976709;28;20265;-70
2022/11/16 02:09:53;;;;;;;4.50;2.70;;;12.10;99.90;;;;;;4976827;28;20652;-69
2022/11/16 02:12:24;;;;;;;5.13;2.67;;;12.10;99.90;;;;;;4976476;28;20175;-69
2022/11/16 02:15:05;;;;;;;5.50;2.87;;;12.10;99.90;;;;;;4976850;28;20253;-71
2022/11/16 02:17:51;;;;;;;5.13;2.90;;;12.20;99.90;;;;;;4976838;28;20168;-70
2022/11/16 02:20:35;;;;;;;5.47;2.90;;;12.30;99.90;;;;;;4955137;29;20188;-70
2022/11/16 02:23:15;;;;;;;3.50;2.80;;;12.30;99.90;;;;;;4954900;29;20185;-70
2022/11/16 02:26:09;;;;;;;6.40;2.70;;;12.30;99.90;;;;;;4954822;28;20188;-69
2022/11/16 02:29:09;;;;;;;4.50;3.30;;;12.20;99.90;;;;;;4955236;28;20176;-69
2022/11/16 02:31:43;;;;;;;6.63;3.10;;;12.20;99.90;;;;;;4954999;28;20704;-70
2022/11/16 02:34:13;;;;;;;4.83;3.10;;;12.20;99.90;;;;;;4954625;28;20247;-70
2022/11/16 02:36:41;;;;;;;6.63;3.30;;;12.10;99.90;;;;;;4954785;28;20299;-70
2022/11/16 02:39:13;;;;;;;4.43;3.57;;;12.10;99.90;;;;;;4954977;29;20215;-70
2022/11/16 02:41:41;;;;;;;6.17;3.40;;;12.10;99.90;;;;;;4954394;28;20250;-70
2022/11/16 02:44:12;;;;;;;5.20;3.93;;;12.10;99.90;;;;;;4954762;28;20189;-70
2022/11/16 02:46:42;;;;;;;5.10;3.80;;;12.10;99.90;;;;;;4954919;29;20177;-69
2022/11/16 02:49:16;;;;;;;5.40;3.47;;;12.10;99.90;;;;;;4954800;29;20231;-69
2022/11/16 02:51:44;;;;;;;6.17;3.57;;;12.10;99.90;;;;;;4954626;28;20216;-69
2022/11/16 02:54:15;;;;;;;4.70;3.20;;;12.00;99.90;;;;;;4954575;28;20239;-69
2022/11/16 02:56:48;;;;;;;7.20;3.73;;;11.90;99.90;;;;;;4959364;28;20211;-69
2022/11/16 02:59:14;;;;;;;5.37;3.40;;;11.80;99.90;;;;;;4975964;28;20172;-70
2022/11/16 03:01:46;;;;;;;12.20;3.60;;;11.70;99.90;;;;;;4975818;28;20200;-70
2022/11/16 03:04:32;;;;;;;7.07;3.70;;;11.70;99.90;;;;;;4974592;28;20287;-69
2022/11/16 03:07:00;;;;;;;5.80;3.80;;;11.70;99.90;;;;;;4975723;28;20219;-70
2022/11/16 03:09:30;;;;;;;4.57;3.33;;;11.80;99.90;;;;;;4975617;28;20187;-70
2022/11/16 03:11:59;;;;;;;8.17;3.60;;;11.80;99.90;;;;;;4975766;28;20295;-69
2022/11/16 03:14:53;;;;;;;5.43;2.80;;;11.80;99.90;;;;;;4975761;28;20180;-69
2022/11/16 03:17:24;;;;;;;5.27;2.60;;;11.70;99.90;;;;;;4975404;28;20671;-69
2022/11/16 03:20:10;;;;;;;5.87;3.00;;;11.70;99.90;;;;;;4975535;28;20172;-69
2022/11/16 03:22:43;;;;;;;3.77;2.67;;;11.80;99.90;;;;;;4975525;28;20176;-69
2022/11/16 03:25:12;;;;;;;5.50;3.00;;;11.80;99.90;;;;;;4975068;28;20167;-69
2022/11/16 03:27:53;;;;;;;6.20;2.90;;;11.70;99.90;;;;;;4975414;28;20172;-69
2022/11/16 03:30:24;;;;;;;4.33;2.67;;;11.70;99.90;;;;;;4975099;28;20688;-70
2022/11/16 03:33:02;;;;;;;9.40;2.90;;;11.70;99.90;;;;;;4975218;28;20255;-70
2022/11/16 03:35:34;;;;;;;8.20;3.10;;;11.70;99.90;;;;;;4974860;28;20219;-70
2022/11/16 03:38:02;;;;;;;4.83;2.50;;;11.70;99.90;;;;;;4974870;28;20172;-70
2022/11/16 03:40:30;;;;;;;4.33;3.00;;;11.60;99.90;;;;;;4973634;28;20176;-70
2022/11/16 03:42:58;;;;;;;7.77;3.33;;;11.60;99.90;;;;;;4975146;28;20179;-70
2022/11/16 03:45:24;;;;;;;7.67;3.10;;;11.50;99.90;;;;;;4974598;28;20172;-70
2022/11/16 03:47:50;;;;;;;4.97;3.07;;;11.40;99.90;;;;;;4974955;28;20219;-70
2022/11/16 03:50:16;;;;;;;9.37;3.27;;;11.30;99.90;;;;;;4974825;28;20188;-70
2022/11/16 03:52:42;;;;;;;6.70;3.10;;;11.40;99.90;;;;;;4974545;28;20187;-70
2022/11/16 03:55:08;;;;;;;8.13;3.50;;;11.30;99.90;;;;;;4974965;28;20254;-70
2022/11/16 03:57:33;;;;;;;6.37;3.23;;;11.30;99.90;;;;;;4974836;28;20643;-70
2022/11/16 03:59:59;;;;;;;8.60;3.77;;;11.30;99.90;;;;;;4974628;28;20172;-70
2022/11/16 04:02:24;;;;;;;10.90;3.80;;;11.20;99.90;;;;;;4974728;28;20763;-70
2022/11/16 04:24:24;;;;;;;8.87;4.00;;;10.80;99.90;;;;;;4974928;28;20202;-70
2022/11/16 04:29:38;;;;;;;6.23;4.17;;;10.80;99.90;;;;;;4974418;28;20631;-70
2022/11/16 04:37:48;;;;;;;12.03;5.07;;;10.70;99.90;;;;;;4973959;28;20186;-70
2022/11/16 04:40:15;;;;;;;9.23;4.90;;;10.70;99.90;;;;;;4974319;28;20172;-70
2022/11/16 04:42:41;;;;;;;11.90;4.87;;;10.70;99.90;;;;;;4973624;28;20175;-70
2022/11/16 04:47:52;;;;;;;12.53;4.80;;;10.60;99.90;;;;;;4974158;28;20608;-70
2022/11/16 04:50:21;;;;;;;11.93;4.67;;;10.50;99.90;;;;;;4972333;28;20264;-70
2022/11/16 04:52:51;;;;;;;11.10;4.70;;;10.50;99.90;;;;;;4972368;28;20200;-70
2022/11/16 04:55:17;;;;;;;9.27;4.23;;;10.50;99.90;;;;;;4973913;28;20207;-70
2022/11/16 04:57:42;;;;;;;8.57;3.87;;;10.50;99.90;;;;;;4976250;28;20624;-70
2022/11/16 05:00:09;;;;;;;11.77;3.70;;;10.50;99.90;;;;;;4977512;28;20173;-69
2022/11/16 05:02:34;;;;;;;9.87;3.73;;;10.50;99.90;;;;;;4976315;28;20175;-70
2022/11/16 05:05:00;;;;;;;12.60;3.80;;;10.40;99.90;;;;;;4976005;28;20536;-70
2022/11/16 05:07:26;;;;;;;9.30;3.77;;;10.40;99.90;;;;;;4977424;28;20199;-69
2022/11/16 05:09:53;;;;;;;12.63;3.50;;;10.40;99.90;;;;;;4977323;28;21023;-69
2022/11/16 05:12:24;;;;;;;9.50;3.53;;;10.40;99.90;;;;;;4977365;28;20258;-69
2022/11/16 05:14:50;;;;;;;10.03;3.00;;;10.30;99.90;;;;;;4977239;28;20564;-70
2022/11/16 05:17:17;;;;;;;14.90;3.63;;;10.30;99.90;;;;;;4977447;28;20164;-70
2022/11/16 05:22:36;;;;;;;8.43;2.83;;;10.20;99.90;;;;;;4977278;28;20226;-70
2022/11/16 05:25:02;;;;;;;9.33;3.50;;;10.20;99.90;;;;;;4975862;28;20175;-70
2022/11/16 05:27:31;;;;;;;10.23;3.30;;;10.20;99.90;;;;;;4976887;28;20168;-70
2022/11/16 05:30:00;;;;;;;9.37;2.90;;;10.20;99.90;;;;;;4977074;28;20256;-70
2022/11/16 05:32:26;;;;;;;9.87;3.03;;;10.10;99.90;;;;;;4976525;28;20172;-70
2022/11/16 05:34:52;;;;;;;14.83;3.20;;;10.10;99.90;;;;;;4976387;28;20215;-71
2022/11/16 05:37:19;;;;;;;11.43;3.00;;;10.10;99.90;;;;;;4976981;28;20689;-70
2022/11/16 05:39:45;;;;;;;8.77;2.90;;;10.10;99.90;;;;;;4976959;28;20259;-70
2022/11/16 05:42:11;;;;;;;12.07;2.97;;;10.10;99.90;;;;;;4976396;28;20212;-70
2022/11/16 05:44:37;;;;;;;11.97;3.03;;;10.00;99.90;;;;;;4976469;28;20187;-70
2022/11/16 05:47:02;;;;;;;12.17;3.10;;;10.00;99.90;;;;;;4976712;28;20184;-69
2022/11/16 05:49:28;;;;;;;14.27;3.17;;;10.00;99.90;;;;;;4976538;28;20187;-69
2022/11/16 05:51:53;;;;;;;16.27;2.70;;;10.00;99.90;;;;;;4976204;28;20563;-69
2022/11/16 05:54:23;;;;;;;6.87;3.17;;;10.00;99.90;;;;;;4976337;28;20646;-70
2022/11/16 05:56:49;;;;;;;10.13;3.10;;;10.00;99.90;;;;;;4976117;28;20179;-71
2022/11/16 05:59:19;;;;;;;12.77;3.00;;;10.00;99.90;;;;;;4976201;28;20195;-71
2022/11/16 06:01:45;;;;;;;10.67;3.27;;;10.00;99.90;;;;;;4975576;28;20268;-69
2022/11/16 06:04:11;;;;;;;8.77;3.20;;;10.00;99.90;;;;;;4975587;28;20175;-70
2022/11/16 06:06:43;;;;;;;11.80;3.00;;;10.00;99.90;;;;;;4976058;28;20227;-70
2022/11/16 06:09:12;;;;;;;10.57;3.30;;;9.90;99.90;;;;;;4973616;28;20199;-70
2022/11/16 06:11:38;;;;;;;8.17;2.80;;;9.90;99.90;;;;;;4974605;28;20212;-71
2022/11/16 06:14:07;;;;;;;13.17;3.10;;;9.90;99.90;;;;;;4975678;28;20248;-71
2022/11/16 06:16:32;;;;;;;10.53;3.23;;;9.90;99.90;;;;;;4975476;28;20548;-71
2022/11/16 06:18:59;;;;;;;10.10;2.80;;;9.90;99.90;;;;;;4975102;28;20164;-70
2022/11/16 06:21:24;;;;;;;9.80;2.80;;;9.80;99.90;;;;;;4975755;28;20175;-71
2022/11/16 06:23:50;;;;;;;14.17;3.10;;;9.80;99.90;;;;;;4975310;28;20183;-71
2022/11/16 06:26:21;;;;;;;9.53;3.10;;;9.80;99.90;;;;;;4975489;28;20180;-70
2022/11/16 06:28:49;;;;;;;10.70;3.70;;;9.80;99.90;;;;;;4974719;28;20406;-71
2022/11/16 06:31:15;;;;;;;12.43;2.90;;;9.90;99.90;;;;;;4975437;28;20286;-71
2022/11/16 06:33:41;;;;;;;7.63;3.10;;;9.90;99.90;;;;;;4974816;28;20262;-72
2022/11/16 06:36:07;;;;;;;17.87;3.70;;;9.80;99.90;;;;;;4974117;28;20255;-72
2022/11/16 06:38:32;;;;;;;9.20;3.43;;;9.80;99.90;;;;;;4972521;28;20179;-72
2022/11/16 06:40:58;;;;;;;16.67;3.67;;;9.80;99.90;;;;;;4971520;28;20179;-72
2022/11/16 06:43:27;;;;;;;11.03;3.47;;;9.80;99.90;;;;;;4973236;28;20254;-70
2022/11/16 06:45:55;;;;;;;13.97;3.53;;;9.80;99.90;;;;;;4973798;28;20267;-71
2022/11/16 06:48:21;;;;;;;10.30;3.73;;;9.80;99.90;;;;;;4973861;28;20636;-71
2022/11/16 06:50:48;;;;;;;10.00;3.87;;;9.70;99.90;;;;;;4973923;28;20219;-72
2022/11/16 06:53:14;;;;;;;11.40;3.53;;;9.70;99.90;;;;;;4973375;28;20174;-71
2022/11/16 06:55:40;;;;;;;11.63;3.40;;;9.80;99.90;;;;;;4974084;28;20180;-71
2022/11/16 06:58:05;;;;;;;15.53;3.63;;;9.70;99.90;;;;;;4974325;28;20625;-70
2022/11/16 07:00:31;;;;;;;15.67;3.90;;;9.70;99.90;;;;;;4973586;28;20645;-70
2022/11/16 07:02:57;;;;;;;10.93;3.47;;;9.80;99.90;;;;;;4973890;28;20172;-71
2022/11/16 07:05:22;;;;;;;11.83;3.60;;;9.80;99.90;;;;;;4973838;28;20660;-71
2022/11/16 07:07:53;;;;;;;13.30;3.63;;;9.80;99.90;;;;;;4973248;28;20254;-72
2022/11/16 07:10:19;;;;;;;10.90;3.90;;;9.80;99.90;;;;;;4972365;28;20207;-70
2022/11/16 07:12:47;;;;;;;10.00;3.30;;;9.80;99.90;;;;;;4973341;28;20219;-72
2022/11/16 07:15:13;;;;;;;10.30;3.37;;;9.80;99.90;;;;;;4973341;28;20172;-70
2022/11/16 07:17:39;;;;;;;14.17;3.97;;;9.80;99.90;;;;;;4980000;28;20171;-71
2022/11/16 07:20:05;;;;;;;10.33;3.60;;;9.80;99.90;;;;;;4992012;28;20515;-70
2022/11/16 07:22:34;;;;;;;11.10;3.57;;;9.90;99.90;;;;;;4993530;28;20233;-69
2022/11/16 07:24:59;;;;;;;11.23;3.23;;;10.00;99.90;;;;;;4987046;28;20183;-70
2022/11/16 07:27:25;;;;;;;10.47;3.27;;;10.00;99.90;;;;;;4979562;28;20544;-70
2022/11/16 07:29:51;;;;;;;12.93;3.70;;;10.00;99.90;;;;;;4985947;28;20238;-71
2022/11/16 07:32:16;;;;;;;11.37;3.30;;;10.10;99.90;;;;;;4992954;28;20191;-68
2022/11/16 07:34:42;;;;;;;5.33;2.80;;;10.20;99.90;;;;;;4992040;28;20627;-69
2022/11/16 07:37:08;;;;;;;11.13;2.90;;;10.50;99.90;;;;;;5005110;28;20260;-71
2022/11/16 07:39:33;;;;;;;13.03;3.77;;;11.00;99.90;;;;;;4999406;28;20178;-69
2022/11/16 07:42:02;;;;;;;9.67;3.03;;;11.60;99.90;;;;;;4999794;28;20627;-69
2022/11/16 07:44:27;;;;;;;33.33;5.37;;;12.30;99.90;;;;;;4983401;28;20195;-70
2022/11/16 07:46:53;;;;;;;5.17;2.67;;;12.80;99.90;;;;;;5006116;28;20329;-71
2022/11/16 07:49:18;;;;;;;11.33;2.63;;;13.40;99.90;;;;;;4995979;28;20182;-71
2022/11/16 07:51:44;;;;;;;5.70;1.87;;;13.90;99.90;;;;;;5001087;28;21320;-69
2022/11/16 07:54:14;;;;;;;6.33;2.63;;;14.40;99.90;;;;;;4993892;28;20306;-71
2022/11/16 07:56:42;;;;;;;8.73;2.53;;;14.90;99.90;;;;;;4997008;28;20234;-69
2022/11/16 07:59:08;;;;;;;7.43;2.00;;;15.10;99.90;;;;;;5007743;28;20175;-70
2022/11/16 08:01:33;;;;;;;5.83;2.33;;;14.90;99.90;;;;;;4997612;28;20181;-71
2022/11/16 08:04:02;;;;;;;4.63;1.70;;;14.90;99.90;;;;;;4995029;28;20252;-69
2022/11/16 08:06:30;;;;;;;6.50;2.10;;;15.20;99.90;;;;;;4995225;28;20269;-70
2022/11/16 08:08:56;;;;;;;6.33;2.40;;;15.20;99.90;;;;;;5008319;28;20178;-69
2022/11/16 08:11:25;;;;;;;5.43;2.20;;;15.70;99.90;;;;;;4996522;28;20229;-69
2022/11/16 08:13:50;;;;;;;4.10;1.90;;;16.40;99.90;;;;;;5002873;28;20182;-70
2022/11/16 08:16:18;;;;;;;6.55;1.92;;;16.80;99.90;;;;;;5003544;28;20265;-70
2022/11/16 08:18:44;;;;;;;7.35;2.30;;;17.20;99.90;;;;;;4995584;28;20266;-71
2022/11/16 08:21:13;;;;;;;4.57;2.28;;;17.30;99.90;;;;;;5008318;28;20266;-70
2022/11/16 08:23:41;;;;;;;4.68;1.92;;;17.50;99.90;;;;;;4998747;28;20658;-71
2022/11/16 08:26:14;;;;;;;7.85;2.30;;;17.60;99.90;;;;;;5000828;28;20306;-70
2022/11/16 08:28:49;;;;;;;3.85;2.22;;;16.70;99.90;;;;;;5007647;28;20182;-73
2022/11/16 08:31:18;;;;;;;8.00;2.42;;;16.90;99.90;;;;;;4980359;28;20194;-69
2022/11/16 08:33:46;;;;;;;3.70;1.98;;;17.20;99.90;;;;;;5003845;28;20167;-69
2022/11/16 08:36:16;;;;;;;12.82;2.60;;;17.20;99.90;;;;;;5003330;28;20268;-69
2022/11/16 08:38:43;;;;;;;3.97;2.20;;;17.10;99.90;;;;;;4993313;28;20168;-71
2022/11/16 08:41:09;;;;;;;7.40;2.33;;;17.30;99.90;;;;;;4994970;28;20580;-69
2022/11/16 08:43:34;;;;;;;5.93;2.05;;;17.80;99.90;;;;;;4998345;28;20170;-68
2022/11/16 08:46:00;;;;;;;10.20;2.85;;;18.20;99.90;;;;;;5001658;28;20186;-68
2022/11/16 08:48:26;;;;;;;11.40;2.58;;;17.50;99.90;;;;;;5005738;28;20179;-69
2022/11/16 08:50:51;;;;;;;6.13;2.42;;;17.50;99.90;;;;;;4995267;28;20318;-69
2022/11/16 08:53:17;;;;;;;6.50;2.30;;;17.80;99.90;;;;;;5007642;28;20225;-69
2022/11/16 08:55:43;;;;;;;4.70;2.20;;;18.20;99.90;;;;;;4999165;28;20269;-70
2022/11/16 08:58:09;;;;;;;6.85;2.83;;;17.80;99.90;;;;;;4999461;28;20619;-69
2022/11/16 09:00:36;;;;;;;7.25;2.50;;;18.10;99.90;;;;;;5002360;28;20182;-69
2022/11/16 09:03:01;;;;;;;5.75;1.90;;;18.40;99.90;;;;;;5006527;28;20198;-70
2022/11/16 09:05:27;;;;;;;5.45;2.03;;;18.40;99.90;;;;;;4987796;28;20284;-69
2022/11/16 09:07:55;;;;;;;4.82;2.47;;;18.80;99.00;;;;;;4992428;28;20171;-69
2022/11/16 09:10:23;;;;;;;4.78;1.95;;;19.00;98.90;;;;;;4990685;28;20587;-69
2022/11/16 09:12:49;;;;;;;5.80;1.90;;;18.90;99.00;;;;;;4990122;28;20250;-69
2022/11/16 09:15:15;;;;;;;7.55;2.22;;;18.40;98.30;;;;;;4991647;28;20188;-69
2022/11/16 09:17:41;;;;;;;5.35;2.13;;;17.50;99.90;;;;;;4991693;28;20171;-69
2022/11/16 09:20:07;;;;;;;9.07;2.72;;;16.50;99.90;;;;;;4991506;28;20206;-69
2022/11/16 09:22:33;;;;;;;7.53;2.38;;;16.20;99.90;;;;;;4989766;28;20206;-68
2022/11/16 09:24:59;;;;;;;6.93;2.47;;;15.70;99.90;;;;;;4991613;28;20314;-69
2022/11/16 09:27:24;;;;;;;10.53;2.50;;;15.30;99.90;;;;;;4991297;28;20684;-68
2022/11/16 09:29:50;;;;;;;5.73;1.90;;;14.90;99.90;;;;;;4991962;28;20229;-68
2022/11/16 09:32:15;;;;;;;7.37;2.57;;;14.20;99.90;;;;;;4991103;28;20531;-68
2022/11/16 09:34:41;;;;;;;11.83;2.30;;;13.80;99.90;;;;;;4991118;28;20584;-68
2022/11/16 09:37:07;;;;;;;9.80;2.63;;;13.50;99.90;;;;;;4991508;28;20314;-68
2022/11/16 09:39:33;;;;;;;7.90;2.30;;;13.30;99.90;;;;;;4991858;28;20171;-68
2022/11/16 09:42:23;;;;;;;6.23;2.50;;;13.20;99.90;;;;;;4991163;28;20238;-68
2022/11/16 09:44:57;;;;;;;7.63;2.40;;;13.00;99.90;;;;;;4993552;28;20599;-69
2022/11/16 09:47:35;;;;;;;4.30;2.10;;;12.90;99.90;;;;;;4994392;28;20182;-68
2022/11/16 09:50:05;;;;;;;9.73;2.17;;;12.70;99.90;;;;;;4995081;28;20627;-69
2022/11/16 09:52:40;;;;;;;9.17;2.50;;;12.50;99.90;;;;;;4993338;28;20171;-67
2022/11/16 09:55:18;;;;;;;9.63;2.80;;;12.50;99.90;;;;;;4992482;28;20599;-69
2022/11/16 09:57:45;;;;;;;8.00;2.50;;;12.60;99.90;;;;;;4994945;28;20178;-67
2022/11/16 10:00:17;;;;;;;7.40;2.83;;;12.80;99.90;;;;;;4993308;28;20255;-69
2022/11/16 10:03:10;;;;;;;8.63;2.50;;;13.00;99.90;;;;;;4995301;28;20163;-68
2022/11/16 10:05:39;;;;;;;9.40;2.53;;;13.00;99.90;;;;;;4994270;28;20210;-68
2022/11/16 10:08:23;;;;;;;9.53;2.43;;;12.90;99.90;;;;;;4993889;28;20278;-69
2022/11/16 10:11:09;;;;;;;5.80;2.27;;;12.80;99.90;;;;;;4994915;28;20317;-68
2022/11/16 10:14:16;;;;;;;7.53;2.90;;;12.80;99.90;;;;;;4980281;28;20246;-68
2022/11/16 10:16:47;;;;;;;9.23;2.70;;;12.90;99.90;;;;;;4985849;28;20187;-68
2022/11/16 10:19:42;;;;;;;9.20;2.37;;;13.00;99.90;;;;;;4976543;28;20659;-67
2022/11/16 10:22:45;;;;;;;9.53;2.70;;;13.00;99.90;;;;;;4889326;29;20193;-69
2022/11/16 10:25:16;;;;;;;9.17;2.73;;;13.00;99.90;;;;;;4912013;29;20202;-66
2022/11/16 10:28:03;;;;;;;6.53;2.10;;;13.20;99.90;;;;;;4896356;29;20357;-69
2022/11/16 10:30:37;;;;;;;9.30;2.43;;;13.40;99.90;;;;;;4896279;29;20226;-67
2022/11/16 10:33:09;;;;;;;4.40;2.00;;;13.80;99.90;;;;;;4911745;29;20178;-68
2022/11/16 10:35:45;;;;;;;5.53;1.90;;;14.30;99.90;;;;;;4896058;29;20223;-67
2022/11/16 10:38:17;;;;;;;7.40;1.87;;;14.40;99.90;;;;;;4896566;29;20260;-68
2022/11/16 10:40:48;;;;;;;10.83;2.67;;;14.40;99.90;;;;;;4883621;29;20679;-68
2022/11/16 10:43:21;;;;;;;5.40;1.93;;;14.20;99.90;;;;;;4896437;29;20182;-68
2022/11/16 10:45:59;;;;;;;7.57;2.33;;;14.00;99.90;;;;;;4895965;29;20281;-68
2022/11/16 10:48:35;;;;;;;5.60;2.03;;;14.00;99.90;;;;;;4881645;29;20187;-69
2022/11/16 10:51:02;;;;;;;6.17;2.43;;;14.10;99.90;;;;;;4905436;29;20277;-68
2022/11/16 10:53:34;;;;;;;5.40;2.10;;;14.40;99.90;;;;;;4913802;29;20280;-69
2022/11/16 10:56:17;;;;;;;6.77;2.10;;;15.10;99.90;;;;;;4914541;29;20241;-68
2022/11/16 10:58:54;;;;;;;25.83;20.05;;;15.60;99.90;;;;;;4934065;28;20215;-68
2022/11/16 11:01:46;;;;;;;5.93;3.28;;;16.10;99.90;;;;;;4943540;28;20183;-68
2022/11/16 11:04:25;;;;;;;7.13;2.40;;;16.10;99.90;;;;;;4962730;28;20190;-68
2022/11/16 11:06:59;;;;;;;5.85;2.03;;;16.60;99.90;;;;;;4970151;28;20226;-67
2022/11/16 11:09:32;;;;;;;4.85;2.20;;;17.10;99.90;;;;;;4959344;28;20183;-69
2022/11/16 11:15:25;;;;;;;4.70;2.10;;;17.80;99.90;;;;;;4968354;28;20572;-69
2022/11/16 11:18:16;;;;;;;4.90;2.05;;;17.80;99.90;;;;;;4960636;28;20195;-68
2022/11/16 11:20:49;;;;;;;7.93;2.58;;;17.40;99.90;;;;;;4969732;28;20168;-68
2022/11/16 11:23:19;;;;;;;8.13;2.20;;;16.60;99.90;;;;;;4939139;28;20246;-68
2022/11/16 11:25:51;;;;;;;5.47;1.90;;;16.20;99.90;;;;;;4964640;28;20212;-68
2022/11/16 11:28:35;;;;;;;4.07;1.85;;;15.80;99.90;;;;;;4963322;28;20496;-68
2022/11/16 11:31:15;;;;;;;12.23;2.30;;;15.30;99.90;;;;;;4955229;28;20208;-68
2022/11/16 11:33:48;;;;;;;5.63;2.13;;;15.10;99.90;;;;;;4964363;28;20656;-68
2022/11/16 11:36:21;;;;;;;5.87;2.30;;;15.40;99.90;;;;;;4963802;28;20715;-68
2022/11/16 11:39:02;;;;;;;4.35;1.60;;;15.70;99.90;;;;;;4982740;28;20175;-68
2022/11/16 11:41:42;;;;;;;7.97;1.90;;;16.00;99.90;;;;;;4961348;28;20314;-68
2022/11/16 11:44:15;;;;;;;3.95;2.22;;;15.90;99.90;;;;;;4963487;28;20179;-69
2022/11/16 11:46:53;;;;;;;7.45;2.28;;;16.00;99.90;;;;;;4986160;28;20288;-68
2022/11/16 11:49:39;;;;;;;6.53;2.10;;;15.90;99.90;;;;;;4952896;28;20271;-69
2022/11/16 11:52:33;;;;;;;6.30;2.20;;;15.40;99.90;;;;;;4980910;28;20277;-68
2022/11/16 11:55:04;;;;;;;6.17;2.10;;;15.10;99.90;;;;;;4989105;28;20237;-68
2022/11/16 11:57:38;;;;;;;5.20;1.90;;;14.90;99.90;;;;;;4978797;28;20262;-68
2022/11/16 12:00:05;;;;;;;7.70;2.00;;;14.70;99.90;;;;;;4982343;28;20219;-70
2022/11/16 12:02:50;;;;;;;4.73;1.80;;;14.50;99.90;;;;;;4985594;28;20366;-69
2022/11/16 12:05:25;;;;;;;5.53;2.50;;;14.40;99.90;;;;;;4958443;28;20199;-69
2022/11/16 12:08:02;;;;;;;8.27;2.10;;;14.30;99.90;;;;;;4983975;28;20176;-69
2022/11/16 12:10:58;;;;;;;8.07;2.73;;;14.10;99.90;;;;;;4984642;28;20610;-68
2022/11/16 12:13:50;;;;;;;8.40;3.17;;;14.00;99.90;;;;;;4962777;28;20278;-67
2022/11/16 12:16:50;;;;;;;8.23;2.40;;;14.10;99.90;;;;;;4980919;28;20218;-69
2022/11/16 12:19:25;;;;;;;7.73;2.60;;;14.10;99.90;;;;;;4958144;28;20179;-68
2022/11/16 12:22:22;;;;;;;9.27;2.87;;;13.90;99.90;;;;;;4981425;28;20286;-69
2022/11/16 12:25:25;;;;;;;8.93;2.03;;;13.80;99.90;;;;;;4970278;28;20184;-68
2022/11/16 12:28:02;;;;;;;8.57;2.43;;;13.70;99.90;;;;;;4967518;28;20721;-67
2022/11/16 12:30:32;;;;;;;6.20;2.17;;;13.70;99.90;;;;;;4976474;28;20364;-69
2022/11/16 12:33:25;;;;;;;5.97;2.10;;;13.70;99.90;;;;;;4986239;28;20270;-68
2022/11/16 12:36:06;;;;;;;8.13;2.40;;;13.60;99.90;;;;;;4978098;28;20259;-69
2022/11/16 12:38:43;;;;;;;10.87;2.80;;;13.30;99.90;;;;;;4976681;28;20683;-69
2022/11/16 12:41:39;;;;;;;9.37;2.63;;;13.20;99.90;;;;;;4986225;28;20183;-69
2022/11/16 12:44:09;;;;;;;6.47;2.10;;;13.10;99.90;;;;;;4980441;28;20175;-68
2022/11/16 12:46:57;;;;;;;11.80;2.67;;;12.90;99.90;;;;;;4975747;28;20183;-68
2022/11/16 12:49:44;;;;;;;10.37;2.70;;;13.00;99.90;;;;;;4959603;28;20262;-69
2022/11/16 12:52:27;;;;;;;8.07;2.10;;;13.00;99.90;;;;;;4978555;28;20239;-68
2022/11/16 12:55:12;;;;;;;5.63;2.33;;;12.90;99.90;;;;;;4987437;28;20246;-68
2022/11/16 12:58:20;;;;;;;7.40;2.20;;;13.00;99.90;;;;;;4974968;28;20183;-69
2022/11/16 13:00:58;;;;;;;7.23;2.50;;;13.10;99.90;;;;;;4969929;28;20196;-68
2022/11/16 13:03:39;;;;;;;9.70;2.50;;;13.10;99.90;;;;;;4959982;28;20183;-69
2022/11/16 13:06:15;;;;;;;7.83;2.40;;;13.00;99.90;;;;;;4978862;28;20226;-68
2022/11/16 13:08:50;;;;;;;8.30;2.57;;;13.10;99.90;;;;;;4968908;28;20321;-68
2022/11/16 13:11:43;;;;;;;6.47;2.33;;;13.20;99.90;;;;;;4958033;28;20215;-68
2022/11/16 13:14:19;;;;;;;6.53;1.90;;;13.40;99.90;;;;;;4979198;28;20267;-70
2022/11/16 13:16:46;;;;;;;8.37;2.43;;;13.40;99.90;;;;;;4986252;28;20229;-68
2022/11/16 13:19:14;;;;;;;7.10;2.30;;;13.50;99.90;;;;;;4975980;28;20691;-69
2022/11/16 13:21:46;;;;;;;8.33;2.40;;;13.50;99.90;;;;;;4985866;28;20187;-68
2022/11/16 13:24:31;;;;;;;7.63;2.50;;;13.50;99.90;;;;;;4981111;28;20195;-69
2022/11/16 13:27:29;;;;;;;6.77;2.50;;;13.50;99.90;;;;;;4974597;28;20175;-68
2022/11/16 13:30:24;;;;;;;5.33;2.20;;;13.40;99.90;;;;;;4973087;28;20188;-68
2022/11/16 13:33:11;;;;;;;7.60;2.23;;;13.40;99.90;;;;;;4988869;28;20289;-69
2022/11/16 13:35:37;;;;;;;7.00;2.20;;;13.20;99.90;;;;;;4965792;28;20224;-69
2022/11/16 13:38:10;;;;;;;7.27;2.47;;;13.20;99.90;;;;;;4953734;29;20189;-68
2022/11/16 13:40:36;;;;;;;5.90;2.23;;;13.10;99.90;;;;;;4954722;29;20633;-68
2022/11/16 13:43:08;;;;;;;8.20;2.80;;;13.20;99.90;;;;;;4956596;28;20168;-68
2022/11/16 13:45:41;;;;;;;7.57;2.60;;;13.10;99.90;;;;;;4956599;28;20175;-69